sensor_id;sensor_type;location;lat;lon;timestamp;temperature;humidity
8436;DHT22;4255;48.730;9.156;2024-02-04T00:02:07;9.30;2.30
8436;DHT22;4255;48.730;9.156;2024-02-04T00:04:35;9.30;1.00
8436;DHT22;4255;48.730;9.156;2024-02-04T00:07:01;9.30;1.00
8436;DHT22;4255;48.730;9.156;2024-02-04T00:09:26;9.30;1.00
8436;DHT22;4255;48.730;9.156;2024-02-04T00:11:54;9.30;1.00
8436;DHT22;4255;48.730;9.156;2024-02-04T00:14:20;9.20;1.00
8436;DHT22;4255;48.730;9.156;2024-02-04T00:16:45;9.10;1.40
8436;DHT22;4255;48.730;9.156;2024-02-04T00:19:11;9.10;4.50
8436;DHT22;4255;48.730;9.156;2024-02-04T00:21:36;8.80;19.90
8436;DHT22;4255;48.730;9.156;2024-02-04T00:24:02;8.70;44.40
8436;DHT22;4255;48.730;9.156;2024-02-04T00:26:28;8.60;65.30
8436;DHT22;4255;48.730;9.156;2024-02-04T00:28:53;8.60;59.40
8436;DHT22;4255;48.730;9.156;2024-02-04T00:31:19;8.50;88.00
8436;DHT22;4255;48.730;9.156;2024-02-04T00:33:44;8.50;98.70
8436;DHT22;4255;48.730;9.156;2024-02-04T00:36:10;8.40;98.50
8436;DHT22;4255;48.730;9.156;2024-02-04T00:38:35;8.40;99.90
8436;DHT22;4255;48.730;9.156;2024-02-04T00:41:01;8.20;99.90
8436;DHT22;4255;48.730;9.156;2024-02-04T00:43:26;8.20;99.90
8436;DHT22;4255;48.730;9.156;2024-02-04T00:45:52;8.20;99.90
8436;DHT22;4255;48.730;9.156;2024-02-04T00:48:20;8.10;99.90
8436;DHT22;4255;48.730;9.156;2024-02-04T00:50:45;8.10;99.90
8436;DHT22;4255;48.730;9.156;2024-02-04T00:53:11;8.10;99.90
8436;DHT22;4255;48.730;9.156;2024-02-04T00:55:36;8.10;99.90
8436;DHT22;4255;48.730;9.156;2024-02-04T00:58:02;8.20;99.90
8436;DHT22;4255;48.730;9.156;2024-02-04T01:00:27;8.10;99.90
8436;DHT22;4255;48.730;9.156;2024-02-04T01:02:53;8.10;99.90
8436;DHT22;4255;48.730;9.156;2024-02-04T01:05:19;8.10;99.90
8436;DHT22;4255;48.730;9.156;2024-02-04T01:07:44;8.00;99.90
8436;DHT22;4255;48.730;9.156;2024-02-04T01:10:10;7.90;99.90
8436;DHT22;4255;48.730;9.156;2024-02-04T01:12:36;8.00;99.90
8436;DHT22;4255;48.730;9.156;2024-02-04T01:15:02;8.00;99.90
8436;DHT22;4255;48.730;9.156;2024-02-04T01:17:30;7.90;99.90
8436;DHT22;4255;48.730;9.156;2024-02-04T01:19:56;7.80;99.90
8436;DHT22;4255;48.730;9.156;2024-02-04T01:22:22;7.90;99.90
8436;DHT22;4255;48.730;9.156;2024-02-04T01:24:51;8.00;99.90
8436;DHT22;4255;48.730;9.156;2024-02-04T01:27:17;7.90;99.90
8436;DHT22;4255;48.730;9.156;2024-02-04T01:29:42;8.00;99.90
8436;DHT22;4255;48.730;9.156;2024-02-04T01:32:08;8.00;99.90
8436;DHT22;4255;48.730;9.156;2024-02-04T01:34:34;8.00;99.90
8436;DHT22;4255;48.730;9.156;2024-02-04T01:36:59;8.10;99.90
8436;DHT22;4255;48.730;9.156;2024-02-04T01:39:25;8.00;99.90
8436;DHT22;4255;48.730;9.156;2024-02-04T01:41:50;8.00;99.90
8436;DHT22;4255;48.730;9.156;2024-02-04T01:44:16;7.90;99.90
8436;DHT22;4255;48.730;9.156;2024-02-04T01:46:42;7.90;99.90
8436;DHT22;4255;48.730;9.156;2024-02-04T01:49:08;8.00;99.90
8436;DHT22;4255;48.730;9.156;2024-02-04T01:51:34;8.00;99.90
8436;DHT22;4255;48.730;9.156;2024-02-04T01:54:00;8.00;99.90
8436;DHT22;4255;48.730;9.156;2024-02-04T01:56:27;7.80;99.90
8436;DHT22;4255;48.730;9.156;2024-02-04T01:58:52;7.80;99.90
8436;DHT22;4255;48.730;9.156;2024-02-04T02:01:19;7.70;99.90
8436;DHT22;4255;48.730;9.156;2024-02-04T02:03:45;7.90;99.90
8436;DHT22;4255;48.730;9.156;2024-02-04T02:06:11;8.00;99.90
8436;DHT22;4255;48.730;9.156;2024-02-04T02:08:40;8.10;99.90
8436;DHT22;4255;48.730;9.156;2024-02-04T02:11:11;8.10;99.90
8436;DHT22;4255;48.730;9.156;2024-02-04T02:13:39;8.10;99.90
8436;DHT22;4255;48.730;9.156;2024-02-04T02:16:13;8.20;99.90
8436;DHT22;4255;48.730;9.156;2024-02-04T02:18:46;8.20;99.90
8436;DHT22;4255;48.730;9.156;2024-02-04T02:24:04;8.20;99.90
8436;DHT22;4255;48.730;9.156;2024-02-04T02:26:33;8.10;99.90
8436;DHT22;4255;48.730;9.156;2024-02-04T02:29:03;8.10;99.90
8436;DHT22;4255;48.730;9.156;2024-02-04T02:31:29;8.10;99.90
8436;DHT22;4255;48.730;9.156;2024-02-04T02:33:54;8.10;99.90
8436;DHT22;4255;48.730;9.156;2024-02-04T02:36:21;8.20;99.90
8436;DHT22;4255;48.730;9.156;2024-02-04T02:41:34;8.30;99.90
8436;DHT22;4255;48.730;9.156;2024-02-04T02:44:01;8.50;99.90
8436;DHT22;4255;48.730;9.156;2024-02-04T02:46:28;8.20;99.90
8436;DHT22;4255;48.730;9.156;2024-02-04T02:48:54;8.10;99.90
8436;DHT22;4255;48.730;9.156;2024-02-04T02:51:20;8.10;99.90
8436;DHT22;4255;48.730;9.156;2024-02-04T02:53:45;8.10;99.90
8436;DHT22;4255;48.730;9.156;2024-02-04T02:56:11;8.20;99.90
8436;DHT22;4255;48.730;9.156;2024-02-04T02:58:37;8.20;99.90
8436;DHT22;4255;48.730;9.156;2024-02-04T03:01:02;8.20;99.90
8436;DHT22;4255;48.730;9.156;2024-02-04T03:03:28;8.30;99.90
8436;DHT22;4255;48.730;9.156;2024-02-04T03:05:53;8.20;99.90
8436;DHT22;4255;48.730;9.156;2024-02-04T03:08:19;8.10;99.90
8436;DHT22;4255;48.730;9.156;2024-02-04T03:10:44;8.20;99.90
8436;DHT22;4255;48.730;9.156;2024-02-04T03:13:10;8.20;99.90
8436;DHT22;4255;48.730;9.156;2024-02-04T03:15:36;8.20;99.90
8436;DHT22;4255;48.730;9.156;2024-02-04T03:18:01;8.30;99.90
8436;DHT22;4255;48.730;9.156;2024-02-04T03:20:27;8.10;99.90
8436;DHT22;4255;48.730;9.156;2024-02-04T03:22:52;8.10;99.90
8436;DHT22;4255;48.730;9.156;2024-02-04T03:25:18;8.20;99.90
8436;DHT22;4255;48.730;9.156;2024-02-04T03:27:44;8.20;99.90
8436;DHT22;4255;48.730;9.156;2024-02-04T03:30:10;8.10;99.90
8436;DHT22;4255;48.730;9.156;2024-02-04T03:32:35;8.10;99.90
8436;DHT22;4255;48.730;9.156;2024-02-04T03:35:01;8.10;99.90
8436;DHT22;4255;48.730;9.156;2024-02-04T03:37:27;8.10;99.90
8436;DHT22;4255;48.730;9.156;2024-02-04T03:39:53;8.10;99.90
8436;DHT22;4255;48.730;9.156;2024-02-04T03:42:18;8.20;99.90
8436;DHT22;4255;48.730;9.156;2024-02-04T03:44:46;8.00;99.90
8436;DHT22;4255;48.730;9.156;2024-02-04T03:47:12;8.20;99.90
8436;DHT22;4255;48.730;9.156;2024-02-04T03:49:37;8.30;99.90
8436;DHT22;4255;48.730;9.156;2024-02-04T03:52:03;8.20;99.90
8436;DHT22;4255;48.730;9.156;2024-02-04T03:54:29;8.10;99.90
8436;DHT22;4255;48.730;9.156;2024-02-04T03:56:54;8.30;99.90
8436;DHT22;4255;48.730;9.156;2024-02-04T03:59:20;8.30;99.90
8436;DHT22;4255;48.730;9.156;2024-02-04T04:01:52;8.50;99.90
8436;DHT22;4255;48.730;9.156;2024-02-04T04:04:21;8.50;99.90
8436;DHT22;4255;48.730;9.156;2024-02-04T04:06:47;8.50;99.90
8436;DHT22;4255;48.730;9.156;2024-02-04T04:09:13;8.60;99.90
8436;DHT22;4255;48.730;9.156;2024-02-04T04:11:39;8.80;99.90
8436;DHT22;4255;48.730;9.156;2024-02-04T04:14:05;8.70;99.90
8436;DHT22;4255;48.730;9.156;2024-02-04T04:16:30;8.70;99.90
8436;DHT22;4255;48.730;9.156;2024-02-04T04:18:56;8.60;99.90
8436;DHT22;4255;48.730;9.156;2024-02-04T04:21:23;8.50;99.90
8436;DHT22;4255;48.730;9.156;2024-02-04T04:23:49;8.70;99.90
8436;DHT22;4255;48.730;9.156;2024-02-04T04:26:15;8.70;99.90
8436;DHT22;4255;48.730;9.156;2024-02-04T04:28:41;8.70;99.90
8436;DHT22;4255;48.730;9.156;2024-02-04T04:31:06;8.70;99.90
8436;DHT22;4255;48.730;9.156;2024-02-04T04:33:32;8.40;99.90
8436;DHT22;4255;48.730;9.156;2024-02-04T04:35:58;8.40;99.90
8436;DHT22;4255;48.730;9.156;2024-02-04T04:38:23;8.50;99.90
8436;DHT22;4255;48.730;9.156;2024-02-04T04:40:49;8.70;99.90
8436;DHT22;4255;48.730;9.156;2024-02-04T04:43:14;8.70;99.90
8436;DHT22;4255;48.730;9.156;2024-02-04T04:45:40;8.90;99.90
8436;DHT22;4255;48.730;9.156;2024-02-04T04:48:06;8.90;99.90
8436;DHT22;4255;48.730;9.156;2024-02-04T04:50:35;8.90;99.90
8436;DHT22;4255;48.730;9.156;2024-02-04T04:53:01;9.00;99.90
8436;DHT22;4255;48.730;9.156;2024-02-04T04:55:27;9.10;99.90
8436;DHT22;4255;48.730;9.156;2024-02-04T04:57:53;8.80;99.90
8436;DHT22;4255;48.730;9.156;2024-02-04T05:00:19;8.50;99.90
8436;DHT22;4255;48.730;9.156;2024-02-04T05:02:45;8.40;99.90
8436;DHT22;4255;48.730;9.156;2024-02-04T05:05:11;8.40;99.90
8436;DHT22;4255;48.730;9.156;2024-02-04T05:07:37;8.30;99.90
8436;DHT22;4255;48.730;9.156;2024-02-04T05:10:03;8.30;99.90
8436;DHT22;4255;48.730;9.156;2024-02-04T05:12:29;8.30;99.90
8436;DHT22;4255;48.730;9.156;2024-02-04T05:14:54;8.20;99.90
8436;DHT22;4255;48.730;9.156;2024-02-04T05:17:20;8.30;99.90
8436;DHT22;4255;48.730;9.156;2024-02-04T05:19:45;8.30;99.90
8436;DHT22;4255;48.730;9.156;2024-02-04T05:22:11;8.40;99.90
8436;DHT22;4255;48.730;9.156;2024-02-04T05:24:37;8.10;99.90
8436;DHT22;4255;48.730;9.156;2024-02-04T05:27:02;8.10;99.90
8436;DHT22;4255;48.730;9.156;2024-02-04T05:29:28;8.10;99.90
8436;DHT22;4255;48.730;9.156;2024-02-04T05:31:54;8.00;99.90
8436;DHT22;4255;48.730;9.156;2024-02-04T05:34:19;8.10;99.90
8436;DHT22;4255;48.730;9.156;2024-02-04T05:36:45;8.20;99.90
8436;DHT22;4255;48.730;9.156;2024-02-04T05:39:15;8.20;99.90
8436;DHT22;4255;48.730;9.156;2024-02-04T05:41:41;8.10;99.90
8436;DHT22;4255;48.730;9.156;2024-02-04T05:44:07;8.10;99.90
8436;DHT22;4255;48.730;9.156;2024-02-04T05:46:36;8.20;99.90
8436;DHT22;4255;48.730;9.156;2024-02-04T05:49:02;8.20;99.90
8436;DHT22;4255;48.730;9.156;2024-02-04T05:51:28;8.40;99.90
8436;DHT22;4255;48.730;9.156;2024-02-04T05:53:54;8.30;99.90
8436;DHT22;4255;48.730;9.156;2024-02-04T05:56:21;8.40;99.90
8436;DHT22;4255;48.730;9.156;2024-02-04T05:58:47;8.60;99.90
8436;DHT22;4255;48.730;9.156;2024-02-04T06:01:13;8.60;99.90
8436;DHT22;4255;48.730;9.156;2024-02-04T06:03:41;8.80;99.90
8436;DHT22;4255;48.730;9.156;2024-02-04T06:06:07;8.90;99.90
8436;DHT22;4255;48.730;9.156;2024-02-04T06:08:32;9.10;99.90
8436;DHT22;4255;48.730;9.156;2024-02-04T06:10:58;9.10;99.90
8436;DHT22;4255;48.730;9.156;2024-02-04T06:13:24;9.10;99.90
8436;DHT22;4255;48.730;9.156;2024-02-04T06:15:49;8.90;99.90
8436;DHT22;4255;48.730;9.156;2024-02-04T06:18:15;8.90;99.90
8436;DHT22;4255;48.730;9.156;2024-02-04T06:20:40;8.80;99.90
8436;DHT22;4255;48.730;9.156;2024-02-04T06:23:06;8.90;99.90
8436;DHT22;4255;48.730;9.156;2024-02-04T06:25:31;8.90;99.90
8436;DHT22;4255;48.730;9.156;2024-02-04T06:27:57;8.90;99.90
8436;DHT22;4255;48.730;9.156;2024-02-04T06:30:23;9.00;99.90
8436;DHT22;4255;48.730;9.156;2024-02-04T06:32:48;8.90;99.90
8436;DHT22;4255;48.730;9.156;2024-02-04T06:35:15;8.90;99.90
8436;DHT22;4255;48.730;9.156;2024-02-04T06:37:41;9.00;99.90
8436;DHT22;4255;48.730;9.156;2024-02-04T06:40:10;9.10;99.90
8436;DHT22;4255;48.730;9.156;2024-02-04T06:42:36;8.90;99.90
8436;DHT22;4255;48.730;9.156;2024-02-04T06:45:02;8.90;99.90
8436;DHT22;4255;48.730;9.156;2024-02-04T06:47:27;9.00;99.90
8436;DHT22;4255;48.730;9.156;2024-02-04T06:49:53;8.90;99.90
8436;DHT22;4255;48.730;9.156;2024-02-04T06:52:18;8.90;99.90
8436;DHT22;4255;48.730;9.156;2024-02-04T06:54:44;8.90;99.90
8436;DHT22;4255;48.730;9.156;2024-02-04T06:57:10;9.00;99.90
8436;DHT22;4255;48.730;9.156;2024-02-04T06:59:35;8.80;99.90
8436;DHT22;4255;48.730;9.156;2024-02-04T07:02:01;8.80;99.90
8436;DHT22;4255;48.730;9.156;2024-02-04T07:04:26;8.90;99.90
8436;DHT22;4255;48.730;9.156;2024-02-04T07:06:52;9.10;99.90
8436;DHT22;4255;48.730;9.156;2024-02-04T07:09:18;9.20;99.90
8436;DHT22;4255;48.730;9.156;2024-02-04T07:11:44;9.20;99.90
8436;DHT22;4255;48.730;9.156;2024-02-04T07:14:10;9.30;99.90
8436;DHT22;4255;48.730;9.156;2024-02-04T07:16:35;9.20;99.90
8436;DHT22;4255;48.730;9.156;2024-02-04T07:19:01;9.00;99.90
8436;DHT22;4255;48.730;9.156;2024-02-04T07:21:26;9.00;99.90
8436;DHT22;4255;48.730;9.156;2024-02-04T07:23:52;8.90;99.90
8436;DHT22;4255;48.730;9.156;2024-02-04T07:26:17;9.00;99.90
8436;DHT22;4255;48.730;9.156;2024-02-04T07:28:43;9.10;99.90
8436;DHT22;4255;48.730;9.156;2024-02-04T07:31:10;8.90;99.90
8436;DHT22;4255;48.730;9.156;2024-02-04T07:33:36;8.80;99.90
8436;DHT22;4255;48.730;9.156;2024-02-04T07:36:02;8.50;99.90
8436;DHT22;4255;48.730;9.156;2024-02-04T07:38:27;8.40;99.90
8436;DHT22;4255;48.730;9.156;2024-02-04T07:40:54;8.40;99.90
8436;DHT22;4255;48.730;9.156;2024-02-04T07:43:21;8.50;99.90
8436;DHT22;4255;48.730;9.156;2024-02-04T07:45:46;8.60;99.90
8436;DHT22;4255;48.730;9.156;2024-02-04T07:48:12;8.70;99.90
8436;DHT22;4255;48.730;9.156;2024-02-04T07:50:37;8.60;99.90
8436;DHT22;4255;48.730;9.156;2024-02-04T07:53:03;8.70;99.90
8436;DHT22;4255;48.730;9.156;2024-02-04T07:55:29;8.70;99.90
8436;DHT22;4255;48.730;9.156;2024-02-04T07:57:54;8.70;99.90
8436;DHT22;4255;48.730;9.156;2024-02-04T08:00:20;8.80;99.90
8436;DHT22;4255;48.730;9.156;2024-02-04T08:02:45;8.70;99.90
8436;DHT22;4255;48.730;9.156;2024-02-04T08:05:12;8.70;99.90
8436;DHT22;4255;48.730;9.156;2024-02-04T08:07:38;8.70;99.90
8436;DHT22;4255;48.730;9.156;2024-02-04T08:10:04;8.60;99.90
8436;DHT22;4255;48.730;9.156;2024-02-04T08:12:30;8.60;99.90
8436;DHT22;4255;48.730;9.156;2024-02-04T08:14:55;8.60;99.90
8436;DHT22;4255;48.730;9.156;2024-02-04T08:17:21;8.60;99.90
8436;DHT22;4255;48.730;9.156;2024-02-04T08:19:46;8.70;99.90
8436;DHT22;4255;48.730;9.156;2024-02-04T08:22:12;8.80;99.90
8436;DHT22;4255;48.730;9.156;2024-02-04T08:24:38;8.70;99.90
8436;DHT22;4255;48.730;9.156;2024-02-04T08:27:04;8.80;99.90
8436;DHT22;4255;48.730;9.156;2024-02-04T08:29:29;8.70;99.90
8436;DHT22;4255;48.730;9.156;2024-02-04T08:31:55;8.70;99.90
8436;DHT22;4255;48.730;9.156;2024-02-04T08:34:20;8.80;99.90
8436;DHT22;4255;48.730;9.156;2024-02-04T08:36:49;8.90;99.90
8436;DHT22;4255;48.730;9.156;2024-02-04T08:39:15;9.00;99.90
8436;DHT22;4255;48.730;9.156;2024-02-04T08:41:41;9.20;99.90
8436;DHT22;4255;48.730;9.156;2024-02-04T08:44:07;9.20;99.90
8436;DHT22;4255;48.730;9.156;2024-02-04T08:46:32;9.40;99.90
8436;DHT22;4255;48.730;9.156;2024-02-04T08:48:58;9.40;99.90
8436;DHT22;4255;48.730;9.156;2024-02-04T08:51:24;9.30;99.90
8436;DHT22;4255;48.730;9.156;2024-02-04T08:53:49;9.50;99.90
8436;DHT22;4255;48.730;9.156;2024-02-04T08:56:15;9.60;99.90
8436;DHT22;4255;48.730;9.156;2024-02-04T08:58:40;9.80;99.90
8436;DHT22;4255;48.730;9.156;2024-02-04T09:01:06;10.10;99.90
8436;DHT22;4255;48.730;9.156;2024-02-04T09:03:32;10.10;99.90
8436;DHT22;4255;48.730;9.156;2024-02-04T09:05:59;10.00;99.90
8436;DHT22;4255;48.730;9.156;2024-02-04T09:08:25;9.80;99.90
8436;DHT22;4255;48.730;9.156;2024-02-04T09:10:50;9.80;99.90
8436;DHT22;4255;48.730;9.156;2024-02-04T09:13:16;9.80;99.90
8436;DHT22;4255;48.730;9.156;2024-02-04T09:15:42;9.60;99.90
8436;DHT22;4255;48.730;9.156;2024-02-04T09:18:07;9.50;99.90
8436;DHT22;4255;48.730;9.156;2024-02-04T09:20:33;9.50;99.90
8436;DHT22;4255;48.730;9.156;2024-02-04T09:22:58;9.70;99.90
8436;DHT22;4255;48.730;9.156;2024-02-04T09:25:25;9.70;99.90
8436;DHT22;4255;48.730;9.156;2024-02-04T09:27:50;9.70;99.90
8436;DHT22;4255;48.730;9.156;2024-02-04T09:30:16;9.50;99.90
8436;DHT22;4255;48.730;9.156;2024-02-04T09:32:42;9.40;99.90
8436;DHT22;4255;48.730;9.156;2024-02-04T09:35:07;9.60;99.90
8436;DHT22;4255;48.730;9.156;2024-02-04T09:37:34;9.60;99.90
8436;DHT22;4255;48.730;9.156;2024-02-04T09:40:00;9.50;99.90
8436;DHT22;4255;48.730;9.156;2024-02-04T09:42:26;9.50;99.90
8436;DHT22;4255;48.730;9.156;2024-02-04T09:44:53;9.40;99.90
8436;DHT22;4255;48.730;9.156;2024-02-04T09:47:20;9.60;99.90
8436;DHT22;4255;48.730;9.156;2024-02-04T09:49:46;9.70;99.90
8436;DHT22;4255;48.730;9.156;2024-02-04T09:52:13;9.70;99.90
8436;DHT22;4255;48.730;9.156;2024-02-04T09:54:44;9.60;99.90
8436;DHT22;4255;48.730;9.156;2024-02-04T09:57:10;9.70;99.90
8436;DHT22;4255;48.730;9.156;2024-02-04T09:59:37;9.90;99.90
8436;DHT22;4255;48.730;9.156;2024-02-04T10:02:03;10.20;99.90
8436;DHT22;4255;48.730;9.156;2024-02-04T10:04:30;10.20;99.90
8436;DHT22;4255;48.730;9.156;2024-02-04T10:06:55;10.00;99.90
8436;DHT22;4255;48.730;9.156;2024-02-04T10:09:21;9.90;99.90
8436;DHT22;4255;48.730;9.156;2024-02-04T10:11:47;10.00;99.90
8436;DHT22;4255;48.730;9.156;2024-02-04T10:14:12;10.00;99.90
8436;DHT22;4255;48.730;9.156;2024-02-04T10:16:40;10.20;99.90
8436;DHT22;4255;48.730;9.156;2024-02-04T10:19:06;10.40;99.90
8436;DHT22;4255;48.730;9.156;2024-02-04T10:21:31;10.50;99.90
8436;DHT22;4255;48.730;9.156;2024-02-04T10:23:57;10.80;99.90
8436;DHT22;4255;48.730;9.156;2024-02-04T10:26:28;10.80;99.90
8436;DHT22;4255;48.730;9.156;2024-02-04T10:28:57;11.00;99.90
8436;DHT22;4255;48.730;9.156;2024-02-04T10:31:23;11.10;99.90
8436;DHT22;4255;48.730;9.156;2024-02-04T10:33:50;11.30;99.90
8436;DHT22;4255;48.730;9.156;2024-02-04T10:36:17;11.30;99.90
8436;DHT22;4255;48.730;9.156;2024-02-04T10:38:42;11.60;99.90
8436;DHT22;4255;48.730;9.156;2024-02-04T10:41:14;11.60;99.90
8436;DHT22;4255;48.730;9.156;2024-02-04T10:43:42;11.70;99.90
8436;DHT22;4255;48.730;9.156;2024-02-04T10:46:10;11.80;99.90
8436;DHT22;4255;48.730;9.156;2024-02-04T10:48:37;11.70;99.90
8436;DHT22;4255;48.730;9.156;2024-02-04T10:51:14;11.60;99.90
8436;DHT22;4255;48.730;9.156;2024-02-04T10:53:42;11.80;99.90
8436;DHT22;4255;48.730;9.156;2024-02-04T10:56:18;11.90;99.90
8436;DHT22;4255;48.730;9.156;2024-02-04T10:58:46;12.00;99.90
8436;DHT22;4255;48.730;9.156;2024-02-04T11:01:14;11.80;99.90
8436;DHT22;4255;48.730;9.156;2024-02-04T11:03:40;11.60;99.90
8436;DHT22;4255;48.730;9.156;2024-02-04T11:06:07;11.40;99.90
8436;DHT22;4255;48.730;9.156;2024-02-04T11:08:34;11.20;99.90
8436;DHT22;4255;48.730;9.156;2024-02-04T11:11:00;11.00;99.90
8436;DHT22;4255;48.730;9.156;2024-02-04T11:13:27;11.00;99.90
8436;DHT22;4255;48.730;9.156;2024-02-04T11:15:54;11.20;99.90
8436;DHT22;4255;48.730;9.156;2024-02-04T11:24:21;11.70;99.90
8436;DHT22;4255;48.730;9.156;2024-02-04T11:26:51;12.20;99.90
8436;DHT22;4255;48.730;9.156;2024-02-04T11:29:16;12.10;99.90
8436;DHT22;4255;48.730;9.156;2024-02-04T11:31:43;12.40;99.90
8436;DHT22;4255;48.730;9.156;2024-02-04T11:34:10;12.30;99.90
8436;DHT22;4255;48.730;9.156;2024-02-04T11:36:39;12.20;99.90
8436;DHT22;4255;48.730;9.156;2024-02-04T11:39:14;12.00;99.90
8436;DHT22;4255;48.730;9.156;2024-02-04T11:41:47;11.90;99.90
8436;DHT22;4255;48.730;9.156;2024-02-04T11:44:12;12.20;99.90
8436;DHT22;4255;48.730;9.156;2024-02-04T11:46:38;12.50;99.90
8436;DHT22;4255;48.730;9.156;2024-02-04T11:49:14;12.60;99.90
8436;DHT22;4255;48.730;9.156;2024-02-04T11:51:40;12.60;99.90
8436;DHT22;4255;48.730;9.156;2024-02-04T11:54:07;12.80;99.90
8436;DHT22;4255;48.730;9.156;2024-02-04T11:56:32;12.70;99.90
8436;DHT22;4255;48.730;9.156;2024-02-04T11:58:59;12.70;99.90
8436;DHT22;4255;48.730;9.156;2024-02-04T12:01:25;12.60;99.90
8436;DHT22;4255;48.730;9.156;2024-02-04T12:03:51;12.60;99.90
8436;DHT22;4255;48.730;9.156;2024-02-04T12:06:17;12.10;99.90
8436;DHT22;4255;48.730;9.156;2024-02-04T12:08:44;11.90;99.90
8436;DHT22;4255;48.730;9.156;2024-02-04T12:11:09;11.70;99.90
8436;DHT22;4255;48.730;9.156;2024-02-04T12:13:35;11.70;99.90
8436;DHT22;4255;48.730;9.156;2024-02-04T12:16:05;11.70;99.90
8436;DHT22;4255;48.730;9.156;2024-02-04T12:18:33;11.60;99.90
8436;DHT22;4255;48.730;9.156;2024-02-04T12:20:59;11.50;99.90
8436;DHT22;4255;48.730;9.156;2024-02-04T12:23:25;11.40;99.90
8436;DHT22;4255;48.730;9.156;2024-02-04T12:25:52;11.60;99.90
8436;DHT22;4255;48.730;9.156;2024-02-04T12:28:17;11.80;99.90
8436;DHT22;4255;48.730;9.156;2024-02-04T12:30:54;11.60;99.90
8436;DHT22;4255;48.730;9.156;2024-02-04T12:33:20;11.30;99.90
8436;DHT22;4255;48.730;9.156;2024-02-04T12:35:50;11.30;99.90
8436;DHT22;4255;48.730;9.156;2024-02-04T12:38:16;11.20;99.90
8436;DHT22;4255;48.730;9.156;2024-02-04T12:40:43;11.30;99.90
8436;DHT22;4255;48.730;9.156;2024-02-04T12:43:11;11.20;99.90
8436;DHT22;4255;48.730;9.156;2024-02-04T12:45:36;11.40;99.90
8436;DHT22;4255;48.730;9.156;2024-02-04T12:48:03;11.50;99.90
8436;DHT22;4255;48.730;9.156;2024-02-04T12:50:29;11.50;99.90
8436;DHT22;4255;48.730;9.156;2024-02-04T12:53:05;11.60;99.90
8436;DHT22;4255;48.730;9.156;2024-02-04T12:55:31;11.70;99.90
8436;DHT22;4255;48.730;9.156;2024-02-04T12:58:10;11.80;99.90
8436;DHT22;4255;48.730;9.156;2024-02-04T13:00:38;11.80;99.90
8436;DHT22;4255;48.730;9.156;2024-02-04T13:03:05;11.60;99.90
8436;DHT22;4255;48.730;9.156;2024-02-04T13:05:31;12.00;1.00
8436;DHT22;4255;48.730;9.156;2024-02-04T13:07:58;12.60;1.00
8436;DHT22;4255;48.730;9.156;2024-02-04T13:10:28;13.00;1.00
8436;DHT22;4255;48.730;9.156;2024-02-04T13:13:06;13.30;99.90
8436;DHT22;4255;48.730;9.156;2024-02-04T13:15:40;13.40;99.90
8436;DHT22;4255;48.730;9.156;2024-02-04T13:18:06;13.00;99.90
8436;DHT22;4255;48.730;9.156;2024-02-04T13:20:32;12.80;99.90
8436;DHT22;4255;48.730;9.156;2024-02-04T13:22:58;12.80;99.90
8436;DHT22;4255;48.730;9.156;2024-02-04T13:25:25;12.50;99.90
8436;DHT22;4255;48.730;9.156;2024-02-04T13:27:51;12.40;99.90
8436;DHT22;4255;48.730;9.156;2024-02-04T13:30:17;12.30;99.90
8436;DHT22;4255;48.730;9.156;2024-02-04T13:32:44;12.30;99.90
8436;DHT22;4255;48.730;9.156;2024-02-04T13:35:10;12.10;99.90
8436;DHT22;4255;48.730;9.156;2024-02-04T13:37:36;12.00;99.90
8436;DHT22;4255;48.730;9.156;2024-02-04T13:40:04;12.10;99.90
8436;DHT22;4255;48.730;9.156;2024-02-04T13:42:31;12.00;99.90
8436;DHT22;4255;48.730;9.156;2024-02-04T13:44:58;11.90;99.90
8436;DHT22;4255;48.730;9.156;2024-02-04T13:47:24;11.90;99.90
8436;DHT22;4255;48.730;9.156;2024-02-04T13:49:50;12.10;99.90
8436;DHT22;4255;48.730;9.156;2024-02-04T13:52:16;12.40;99.90
8436;DHT22;4255;48.730;9.156;2024-02-04T13:54:41;12.40;99.90
8436;DHT22;4255;48.730;9.156;2024-02-04T13:57:07;12.40;99.90
8436;DHT22;4255;48.730;9.156;2024-02-04T13:59:32;12.50;99.90
8436;DHT22;4255;48.730;9.156;2024-02-04T14:01:58;12.30;99.90
8436;DHT22;4255;48.730;9.156;2024-02-04T14:04:23;12.40;99.90
8436;DHT22;4255;48.730;9.156;2024-02-04T14:06:49;12.50;99.90
8436;DHT22;4255;48.730;9.156;2024-02-04T14:09:14;12.50;99.90
8436;DHT22;4255;48.730;9.156;2024-02-04T14:11:41;12.10;99.90
8436;DHT22;4255;48.730;9.156;2024-02-04T14:14:07;11.70;99.90
8436;DHT22;4255;48.730;9.156;2024-02-04T14:16:32;11.30;99.90
8436;DHT22;4255;48.730;9.156;2024-02-04T14:18:58;10.90;1.00
8436;DHT22;4255;48.730;9.156;2024-02-04T14:21:24;11.00;1.00
8436;DHT22;4255;48.730;9.156;2024-02-04T14:23:50;11.00;1.00
8436;DHT22;4255;48.730;9.156;2024-02-04T14:26:20;11.20;1.00
8436;DHT22;4255;48.730;9.156;2024-02-04T14:28:45;11.10;1.00
8436;DHT22;4255;48.730;9.156;2024-02-04T14:31:11;11.20;1.00
8436;DHT22;4255;48.730;9.156;2024-02-04T14:33:37;11.10;1.00
8436;DHT22;4255;48.730;9.156;2024-02-04T14:36:03;11.20;1.00
8436;DHT22;4255;48.730;9.156;2024-02-04T14:38:29;11.10;1.00
8436;DHT22;4255;48.730;9.156;2024-02-04T14:40:58;10.90;1.00
8436;DHT22;4255;48.730;9.156;2024-02-04T14:43:25;10.70;1.00
8436;DHT22;4255;48.730;9.156;2024-02-04T14:45:50;10.70;1.00
8436;DHT22;4255;48.730;9.156;2024-02-04T14:48:16;10.80;1.00
8436;DHT22;4255;48.730;9.156;2024-02-04T14:50:42;10.70;1.00
8436;DHT22;4255;48.730;9.156;2024-02-04T14:53:08;10.80;1.00
8436;DHT22;4255;48.730;9.156;2024-02-04T14:55:33;10.70;1.00
8436;DHT22;4255;48.730;9.156;2024-02-04T14:57:59;10.70;1.00
8436;DHT22;4255;48.730;9.156;2024-02-04T15:00:25;10.60;1.00
8436;DHT22;4255;48.730;9.156;2024-02-04T15:02:53;10.50;1.00
8436;DHT22;4255;48.730;9.156;2024-02-04T15:05:19;10.50;1.00
8436;DHT22;4255;48.730;9.156;2024-02-04T15:07:47;10.60;1.00
8436;DHT22;4255;48.730;9.156;2024-02-04T15:10:13;10.80;1.00
8436;DHT22;4255;48.730;9.156;2024-02-04T15:12:39;10.60;1.00
8436;DHT22;4255;48.730;9.156;2024-02-04T15:15:05;10.50;1.00
8436;DHT22;4255;48.730;9.156;2024-02-04T15:17:35;10.40;1.00
8436;DHT22;4255;48.730;9.156;2024-02-04T15:20:01;10.40;1.00
8436;DHT22;4255;48.730;9.156;2024-02-04T15:22:27;10.30;1.00
8436;DHT22;4255;48.730;9.156;2024-02-04T15:24:53;10.30;1.00
8436;DHT22;4255;48.730;9.156;2024-02-04T15:27:19;10.40;1.00
8436;DHT22;4255;48.730;9.156;2024-02-04T15:29:47;10.30;1.00
8436;DHT22;4255;48.730;9.156;2024-02-04T15:32:14;10.20;8.00
8436;DHT22;4255;48.730;9.156;2024-02-04T15:34:41;10.10;13.40
8436;DHT22;4255;48.730;9.156;2024-02-04T15:37:07;10.20;15.20
8436;DHT22;4255;48.730;9.156;2024-02-04T15:39:34;10.20;18.50
8436;DHT22;4255;48.730;9.156;2024-02-04T15:42:00;10.10;14.60
8436;DHT22;4255;48.730;9.156;2024-02-04T15:44:25;10.10;17.00
8436;DHT22;4255;48.730;9.156;2024-02-04T15:46:51;9.90;34.10
8436;DHT22;4255;48.730;9.156;2024-02-04T15:49:19;9.80;51.50
8436;DHT22;4255;48.730;9.156;2024-02-04T15:51:45;10.00;49.60
8436;DHT22;4255;48.730;9.156;2024-02-04T15:54:12;10.00;40.20
8436;DHT22;4255;48.730;9.156;2024-02-04T15:56:43;10.00;40.60
8436;DHT22;4255;48.730;9.156;2024-02-04T15:59:12;9.90;52.30
8436;DHT22;4255;48.730;9.156;2024-02-04T16:01:38;9.80;66.90
8436;DHT22;4255;48.730;9.156;2024-02-04T16:04:07;9.80;87.50
8436;DHT22;4255;48.730;9.156;2024-02-04T16:06:33;9.90;87.90
8436;DHT22;4255;48.730;9.156;2024-02-04T16:09:02;9.70;91.20
8436;DHT22;4255;48.730;9.156;2024-02-04T16:11:44;9.70;99.30
8436;DHT22;4255;48.730;9.156;2024-02-04T16:14:13;9.70;99.90
8436;DHT22;4255;48.730;9.156;2024-02-04T16:16:43;9.50;99.90
8436;DHT22;4255;48.730;9.156;2024-02-04T16:19:11;9.50;99.90
8436;DHT22;4255;48.730;9.156;2024-02-04T16:21:38;9.40;99.90